createdAt,value
2018-06-25T00:00:26.088Z,15.86
2018-06-25T00:02:55.412Z,15.83
2018-06-25T00:05:24.715Z,15.89
2018-06-25T00:07:53.974Z,15.95
2018-06-25T00:10:23.267Z,15.96
2018-06-25T00:12:52.504Z,15.87
2018-06-25T00:15:21.774Z,15.86
2018-06-25T00:17:51.139Z,15.80
2018-06-25T00:20:20.377Z,15.82
2018-06-25T00:22:49.816Z,15.88
2018-06-25T00:25:19.093Z,15.76
2018-06-25T00:27:48.350Z,15.80
2018-06-25T00:30:17.790Z,15.74
2018-06-25T00:32:47.205Z,15.76
2018-06-25T00:35:16.622Z,15.90
2018-06-25T00:37:45.935Z,15.80
2018-06-25T00:40:15.262Z,15.76
2018-06-25T00:42:44.973Z,15.73
2018-06-25T00:45:14.291Z,15.70
2018-06-25T00:47:43.612Z,15.78
2018-06-25T00:50:12.948Z,15.75
2018-06-25T00:52:42.248Z,15.80
2018-06-25T00:55:11.680Z,15.79
2018-06-25T00:57:41.019Z,15.70
2018-06-25T01:00:10.382Z,15.67
2018-06-25T01:02:39.396Z,15.64
2018-06-25T01:05:08.725Z,15.73
2018-06-25T01:07:37.960Z,15.71
2018-06-25T01:10:07.323Z,15.72
2018-06-25T01:12:36.663Z,15.73
2018-06-25T01:15:06.106Z,15.87
2018-06-25T01:17:35.382Z,15.85
2018-06-25T01:20:04.679Z,15.79
2018-06-25T01:22:33.961Z,15.74
2018-06-25T01:25:03.325Z,15.77
2018-06-25T01:27:32.701Z,15.72
2018-06-25T01:30:01.988Z,15.78
2018-06-25T01:32:31.377Z,15.77
2018-06-25T01:35:00.794Z,15.70
2018-06-25T01:37:30.074Z,15.67
2018-06-25T01:39:59.382Z,15.72
2018-06-25T01:42:28.731Z,15.79
2018-06-25T01:44:58.050Z,15.77
2018-06-25T01:47:27.361Z,15.72
2018-06-25T01:49:56.634Z,15.78
2018-06-25T01:52:25.890Z,15.84
2018-06-25T01:54:55.033Z,15.77
2018-06-25T01:57:24.280Z,15.78
2018-06-25T01:59:53.547Z,15.68
2018-06-25T02:02:22.947Z,15.67
2018-06-25T02:04:52.336Z,15.74
2018-06-25T02:07:21.593Z,15.69
2018-06-25T02:09:51.004Z,15.65
2018-06-25T02:12:20.307Z,15.62
2018-06-25T02:14:49.594Z,15.63
2018-06-25T02:17:18.901Z,15.65
2018-06-25T02:19:48.353Z,15.74
2018-06-25T02:22:17.410Z,15.74
2018-06-25T02:24:46.689Z,15.81
2018-06-25T02:27:16.039Z,15.67
2018-06-25T02:29:45.357Z,15.61
2018-06-25T02:32:14.815Z,15.63
2018-06-25T02:34:44.126Z,15.65
2018-06-25T02:37:13.453Z,15.55
2018-06-25T02:39:43.463Z,15.57
2018-06-25T02:42:12.800Z,15.49
2018-06-25T02:44:42.094Z,15.47
2018-06-25T02:47:11.174Z,15.41
2018-06-25T02:49:40.586Z,15.39
2018-06-25T02:52:09.851Z,15.38
2018-06-25T02:54:38.975Z,15.35
2018-06-25T02:57:08.378Z,15.35
2018-06-25T02:59:37.409Z,15.29
2018-06-25T03:02:06.780Z,15.30
2018-06-25T03:04:36.121Z,15.24
2018-06-25T03:07:05.432Z,15.23
2018-06-25T03:09:34.850Z,15.20
2018-06-25T03:12:05.197Z,15.17
2018-06-25T03:14:34.493Z,15.19
2018-06-25T03:17:03.818Z,15.16
2018-06-25T03:19:33.159Z,15.22
2018-06-25T03:22:02.478Z,15.21
2018-06-25T03:24:31.901Z,15.23
2018-06-25T03:27:01.715Z,15.25
2018-06-25T03:29:31.155Z,15.25
2018-06-25T03:32:00.419Z,15.24
2018-06-25T03:34:29.927Z,15.28
2018-06-25T03:36:59.250Z,15.29
2018-06-25T03:39:28.671Z,15.35
2018-06-25T03:41:57.946Z,15.32
2018-06-25T03:44:27.239Z,15.30
2018-06-25T03:46:56.617Z,15.37
2018-06-25T03:49:26.003Z,15.37
2018-06-25T03:51:55.356Z,15.36
2018-06-25T03:54:24.666Z,15.43
2018-06-25T03:56:54.028Z,15.55
2018-06-25T03:59:23.299Z,15.49
2018-06-25T04:01:52.807Z,15.50
2018-06-25T04:04:22.262Z,15.47
2018-06-25T04:06:51.640Z,15.40
2018-06-25T04:09:20.926Z,15.36
2018-06-25T04:11:50.194Z,15.40
2018-06-25T04:14:19.586Z,15.35
2018-06-25T04:16:48.873Z,15.39
2018-06-25T04:19:18.192Z,15.45
2018-06-25T04:21:48.537Z,15.44
2018-06-25T04:24:17.881Z,15.45
2018-06-25T04:26:47.315Z,15.42
2018-06-25T04:29:16.694Z,15.50
2018-06-25T04:31:45.911Z,15.49
2018-06-25T04:34:15.384Z,15.49
2018-06-25T04:36:44.860Z,15.57
2018-06-25T04:39:14.213Z,15.54
2018-06-25T04:41:43.567Z,15.58
2018-06-25T04:44:12.910Z,15.65
2018-06-25T04:46:42.321Z,15.63
2018-06-25T04:49:11.602Z,15.70
2018-06-25T04:51:40.935Z,15.83
2018-06-25T04:54:10.208Z,15.83
2018-06-25T04:56:39.553Z,15.91
2018-06-25T04:59:15.560Z,15.94
2018-06-25T05:01:45.175Z,16.03
2018-06-25T05:04:14.477Z,16.01
2018-06-25T05:06:43.867Z,16.04
2018-06-25T05:09:13.149Z,16.08
2018-06-25T05:11:42.499Z,16.08
2018-06-25T05:14:12.265Z,16.16
2018-06-25T05:16:41.579Z,16.03
2018-06-25T05:19:11.084Z,16.03
2018-06-25T05:21:40.403Z,15.94
2018-06-25T05:24:09.387Z,15.89
2018-06-25T05:26:38.703Z,15.90
2018-06-25T05:29:07.990Z,16.12
2018-06-25T05:31:37.444Z,16.06
2018-06-25T05:34:06.883Z,16.02
2018-06-25T05:36:36.168Z,16.09
2018-06-25T05:39:09.855Z,16.12
2018-06-25T05:41:39.205Z,16.20
2018-06-25T05:44:08.522Z,16.15
2018-06-25T05:46:37.813Z,16.12
2018-06-25T05:49:07.296Z,16.12
2018-06-25T05:51:36.684Z,16.15
2018-06-25T05:54:05.968Z,16.22
2018-06-25T05:56:35.329Z,16.12
2018-06-25T05:59:04.678Z,16.16
2018-06-25T06:01:34.055Z,16.09
2018-06-25T06:04:03.464Z,16.01
2018-06-25T06:06:32.848Z,15.94
2018-06-25T06:09:02.258Z,15.93
2018-06-25T06:11:31.609Z,15.96
2018-06-25T06:14:00.792Z,15.92
2018-06-25T06:16:30.022Z,15.89
2018-06-25T06:18:59.413Z,15.90
2018-06-25T06:21:28.709Z,15.85
2018-06-25T06:23:58.001Z,15.83
2018-06-25T06:26:27.399Z,15.88
2018-06-25T06:28:56.604Z,15.96
2018-06-25T06:31:25.622Z,16.03
2018-06-25T06:33:54.993Z,16.06
2018-06-25T06:36:24.254Z,16.12
2018-06-25T06:38:57.557Z,16.12
2018-06-25T06:41:26.880Z,16.14
2018-06-25T06:43:56.183Z,16.23
2018-06-25T06:46:25.439Z,16.33
2018-06-25T06:48:54.792Z,16.47
2018-06-25T06:51:24.091Z,16.55
2018-06-25T06:53:53.373Z,16.57
2018-06-25T06:56:22.650Z,16.63
2018-06-25T06:58:51.922Z,16.52
2018-06-25T07:01:21.232Z,16.50
2018-06-25T07:03:50.591Z,16.59
2018-06-25T07:06:20.132Z,16.63
2018-06-25T07:08:49.561Z,16.68
2018-06-25T07:11:18.861Z,16.76
2018-06-25T07:13:48.263Z,16.75
2018-06-25T07:16:17.683Z,16.82
2018-06-25T07:18:47.206Z,16.93
2018-06-25T07:21:16.713Z,17.03
2018-06-25T07:23:45.771Z,17.03
2018-06-25T07:26:21.086Z,17.14
2018-06-25T07:28:50.221Z,17.06
2018-06-25T07:31:19.478Z,17.23
2018-06-25T07:33:48.554Z,17.29
2018-06-25T07:36:17.996Z,17.35
2018-06-25T07:38:47.506Z,17.44
2018-06-25T07:41:18.018Z,17.62
2018-06-25T07:43:47.302Z,17.67
2018-06-25T07:46:16.358Z,17.63
2018-06-25T07:48:45.845Z,17.72
2018-06-25T07:51:15.415Z,17.75
2018-06-25T07:53:44.818Z,17.94
2018-06-25T07:56:15.373Z,17.85
2018-06-25T07:58:44.729Z,17.88
2018-06-25T08:01:14.027Z,18.02
2018-06-25T08:03:43.505Z,18.11
2018-06-25T08:06:12.775Z,18.19
2018-06-25T08:08:42.083Z,18.07
2018-06-25T08:11:11.407Z,18.08
2018-06-25T08:13:40.731Z,17.99
2018-06-25T08:16:10.027Z,17.91
2018-06-25T08:18:39.321Z,17.91
2018-06-25T08:21:08.802Z,18.35
2018-06-25T08:23:38.482Z,18.84
2018-06-25T08:26:07.805Z,19.14
2018-06-25T08:28:37.121Z,19.12
2018-06-25T08:31:06.412Z,19.08
2018-06-25T08:33:35.853Z,18.80
2018-06-25T08:36:05.270Z,18.84
2018-06-25T08:38:34.795Z,18.79
2018-06-25T08:41:04.159Z,19.11
2018-06-25T08:43:33.388Z,19.17
2018-06-25T08:46:02.687Z,19.13
2018-06-25T08:48:32.048Z,19.20
2018-06-25T08:51:02.284Z,19.35
2018-06-25T08:53:31.547Z,19.42
2018-06-25T08:56:01.203Z,19.59
2018-06-25T08:58:30.639Z,19.40
2018-06-25T09:00:59.887Z,19.40
2018-06-25T09:03:29.160Z,19.36
2018-06-25T09:05:58.416Z,19.26
2018-06-25T09:08:27.707Z,19.33
2018-06-25T09:10:56.994Z,19.40
2018-06-25T09:13:26.268Z,19.62
2018-06-25T09:15:55.648Z,19.73
2018-06-25T09:18:25.038Z,19.76
2018-06-25T09:20:54.349Z,19.81
2018-06-25T09:23:23.682Z,19.94
2018-06-25T09:25:52.981Z,19.98
2018-06-25T09:28:22.314Z,20.05
2018-06-25T09:30:51.729Z,20.23
2018-06-25T09:33:20.865Z,20.43
2018-06-25T09:35:50.283Z,20.63
2018-06-25T09:38:19.647Z,20.81
2018-06-25T09:40:49.015Z,20.72
2018-06-25T09:46:15.128Z,20.26
2018-06-25T09:48:44.440Z,20.15
2018-06-25T09:51:13.903Z,20.16
2018-06-25T09:53:43.225Z,19.99
2018-06-25T09:56:12.518Z,20.20
2018-06-25T09:58:41.803Z,20.21
2018-06-25T10:01:12.118Z,20.44
2018-06-25T10:03:42.412Z,20.39
2018-06-25T10:06:11.788Z,20.69
2018-06-25T10:08:41.096Z,20.89
2018-06-25T10:11:10.368Z,21.14
2018-06-25T10:13:39.774Z,21.31
2018-06-25T10:16:09.073Z,21.24
2018-06-25T10:18:38.343Z,21.10
2018-06-25T10:21:08.155Z,20.46
2018-06-25T10:23:37.487Z,20.33
2018-06-25T10:26:06.891Z,20.27
2018-06-25T10:28:36.361Z,20.23
2018-06-25T10:31:05.801Z,20.17
2018-06-25T10:33:35.115Z,20.31
2018-06-25T10:36:04.379Z,20.38
2018-06-25T10:38:33.739Z,20.53
2018-06-25T10:41:04.606Z,20.64
2018-06-25T10:43:33.962Z,20.61
2018-06-25T10:46:03.212Z,20.78
2018-06-25T10:48:32.478Z,20.84
2018-06-25T10:51:02.159Z,20.79
2018-06-25T10:53:31.452Z,20.66
2018-06-25T10:56:00.577Z,20.51
2018-06-25T10:58:29.892Z,20.51
2018-06-25T11:00:59.149Z,20.57
2018-06-25T11:03:28.374Z,20.67
2018-06-25T11:05:57.754Z,20.70
2018-06-25T11:08:27.072Z,20.65
2018-06-25T11:10:56.358Z,20.72
2018-06-25T11:13:25.686Z,20.85
2018-06-25T11:15:54.959Z,20.79
2018-06-25T11:18:24.305Z,20.78
2018-06-25T11:20:53.567Z,20.65
2018-06-25T11:23:22.931Z,20.73
2018-06-25T11:25:52.248Z,20.59
2018-06-25T11:28:21.561Z,20.48
2018-06-25T11:30:50.876Z,20.52
2018-06-25T11:33:19.998Z,20.32
2018-06-25T11:35:51.381Z,20.51
2018-06-25T11:38:20.763Z,20.50
2018-06-25T11:40:50.056Z,20.57
2018-06-25T11:43:19.383Z,20.59
2018-06-25T11:45:48.755Z,20.66
2018-06-25T11:48:18.092Z,20.70
2018-06-25T11:50:47.468Z,20.88
2018-06-25T11:53:16.881Z,20.81
2018-06-25T11:55:46.301Z,20.74
2018-06-25T11:58:15.685Z,20.73
2018-06-25T12:00:45.602Z,20.73
2018-06-25T12:03:15.111Z,20.78
2018-06-25T12:05:44.234Z,20.87
2018-06-25T12:08:13.506Z,20.74
2018-06-25T12:10:42.812Z,21.00
2018-06-25T12:13:11.789Z,21.17
2018-06-25T12:15:41.202Z,21.40
2018-06-25T12:18:10.165Z,21.71
2018-06-25T12:20:39.526Z,21.83
2018-06-25T12:23:08.891Z,21.80
2018-06-25T12:25:38.142Z,22.18
2018-06-25T12:28:07.475Z,22.33
2018-06-25T12:30:36.729Z,22.52
2018-06-25T12:33:06.679Z,22.56
2018-06-25T12:35:36.056Z,22.65
2018-06-25T12:38:05.422Z,22.86
2018-06-25T12:40:34.515Z,22.91
2018-06-25T12:43:03.898Z,23.02
2018-06-25T12:45:33.158Z,23.12
2018-06-25T12:48:02.462Z,23.49
2018-06-25T12:50:31.918Z,23.96
2018-06-25T12:53:01.167Z,23.88
2018-06-25T12:55:30.735Z,24.60
2018-06-25T12:58:00.070Z,24.71
2018-06-25T13:00:29.377Z,25.21
2018-06-25T13:02:58.618Z,25.66
2018-06-25T13:05:27.922Z,25.98
2018-06-25T13:07:57.180Z,26.18
2018-06-25T13:10:26.535Z,25.89
2018-06-25T13:12:56.218Z,25.43
2018-06-25T13:15:25.533Z,25.17
2018-06-25T13:17:54.851Z,24.75
2018-06-25T13:20:24.125Z,24.42
2018-06-25T13:22:53.413Z,24.09
2018-06-25T13:25:22.694Z,24.03
2018-06-25T13:27:51.989Z,24.06
2018-06-25T13:30:21.357Z,24.02
2018-06-25T13:32:51.495Z,24.68
2018-06-25T13:35:20.778Z,25.25
2018-06-25T13:37:50.118Z,25.36
2018-06-25T13:40:19.436Z,25.70
2018-06-25T13:42:48.897Z,25.81
2018-06-25T13:45:18.207Z,25.37
2018-06-25T13:47:47.529Z,24.86
2018-06-25T13:50:16.902Z,24.74
2018-06-25T13:52:46.268Z,24.45
2018-06-25T13:55:15.714Z,24.75
2018-06-25T13:57:45.055Z,25.12
2018-06-25T14:00:14.508Z,25.54
2018-06-25T14:02:43.775Z,25.70
2018-06-25T14:05:13.076Z,26.18
2018-06-25T14:07:42.144Z,26.48
2018-06-25T14:10:11.536Z,26.47
2018-06-25T14:12:40.907Z,26.64
2018-06-25T14:15:10.287Z,26.43
2018-06-25T14:17:39.566Z,26.61
2018-06-25T14:20:09.947Z,26.38
2018-06-25T14:22:39.418Z,26.66
2018-06-25T14:28:11.392Z,26.46
2018-06-25T14:30:45.907Z,26.28
2018-06-25T14:33:15.272Z,26.18
2018-06-25T14:35:44.426Z,25.56
2018-06-25T14:38:16.639Z,25.07
2018-06-25T14:40:46.118Z,24.87
2018-06-25T14:43:15.508Z,25.10
2018-06-25T14:45:44.788Z,25.26
2018-06-25T14:48:14.091Z,25.74
2018-06-25T14:50:43.439Z,25.87
2018-06-25T14:53:12.794Z,26.25
2018-06-25T14:55:42.096Z,26.37
2018-06-25T14:58:11.414Z,26.04
2018-06-25T15:00:40.828Z,26.10
2018-06-25T15:03:10.137Z,25.76
2018-06-25T15:05:39.429Z,25.93
2018-06-25T15:08:08.689Z,26.08
2018-06-25T15:10:38.082Z,26.00
2018-06-25T15:13:07.448Z,25.77
2018-06-25T15:15:36.667Z,26.04
2018-06-25T15:18:07.972Z,25.97
2018-06-25T15:20:37.305Z,25.82
2018-06-25T15:23:06.623Z,25.08
2018-06-25T15:25:35.932Z,25.23
2018-06-25T15:28:05.338Z,25.00
2018-06-25T15:30:34.597Z,24.85
2018-06-25T15:33:03.934Z,25.13
2018-06-25T15:35:33.209Z,25.20
2018-06-25T15:38:02.530Z,25.25
2018-06-25T15:40:31.852Z,25.09
2018-06-25T15:43:01.329Z,25.06
2018-06-25T15:45:30.618Z,24.93
2018-06-25T15:47:59.959Z,24.54
2018-06-25T15:50:29.208Z,24.63
2018-06-25T15:52:58.550Z,24.55
2018-06-25T15:55:27.801Z,24.52
2018-06-25T15:58:03.311Z,24.68
2018-06-25T16:00:32.986Z,24.53
2018-06-25T16:03:02.281Z,24.64
2018-06-25T16:05:31.620Z,24.65
2018-06-25T16:08:00.923Z,24.57
2018-06-25T16:10:32.155Z,24.50
2018-06-25T16:13:01.509Z,24.57
2018-06-25T16:15:30.752Z,24.44
2018-06-25T16:18:00.003Z,24.36
2018-06-25T16:20:29.270Z,24.09
2018-06-25T16:22:58.570Z,24.14
2018-06-25T16:25:27.884Z,24.23
2018-06-25T16:27:57.391Z,24.28
2018-06-25T16:30:26.772Z,24.24
2018-06-25T16:32:56.091Z,24.20
2018-06-25T16:35:25.439Z,24.13
2018-06-25T16:37:54.748Z,24.10
2018-06-25T16:40:24.024Z,24.17
2018-06-25T16:42:53.455Z,23.97
2018-06-25T16:45:22.766Z,23.93
2018-06-25T16:47:52.138Z,23.82
2018-06-25T16:50:21.513Z,23.76
2018-06-25T16:52:50.635Z,23.62
2018-06-25T16:55:19.962Z,23.36
2018-06-25T16:57:49.323Z,23.38
2018-06-25T17:00:18.786Z,23.25
2018-06-25T17:02:48.159Z,23.16
2018-06-25T17:05:17.545Z,23.16
2018-06-25T17:07:46.934Z,23.08
2018-06-25T17:10:16.432Z,23.04
2018-06-25T17:12:45.665Z,22.93
2018-06-25T17:15:14.958Z,22.84
2018-06-25T17:17:44.296Z,22.75
2018-06-25T17:20:13.727Z,22.84
2018-06-25T17:22:43.029Z,22.74
2018-06-25T17:25:12.344Z,22.69
2018-06-25T17:27:41.614Z,22.63
2018-06-25T17:30:10.882Z,22.54
2018-06-25T17:32:40.251Z,22.52
2018-06-25T17:35:09.525Z,22.45
2018-06-25T17:37:38.916Z,22.43
2018-06-25T17:40:08.192Z,22.29
2018-06-25T17:42:37.495Z,22.13
2018-06-25T17:45:07.059Z,22.22
2018-06-25T17:47:36.686Z,22.18
2018-06-25T17:50:06.116Z,22.18
2018-06-25T17:52:35.421Z,22.09
2018-06-25T17:55:04.783Z,22.12
2018-06-25T17:57:34.101Z,22.00
2018-06-25T18:00:03.530Z,21.99
2018-06-25T18:02:32.880Z,21.94
2018-06-25T18:05:02.300Z,21.82
2018-06-25T18:07:31.582Z,21.75
2018-06-25T18:10:00.902Z,21.69
2018-06-25T18:12:30.217Z,21.68
2018-06-25T18:14:59.521Z,21.65
2018-06-25T18:17:28.806Z,21.67
2018-06-25T18:19:58.103Z,21.64
2018-06-25T18:22:27.397Z,21.52
2018-06-25T18:24:56.711Z,21.55
2018-06-25T18:27:25.976Z,21.50
2018-06-25T18:29:55.307Z,21.49
2018-06-25T18:32:24.552Z,21.46
2018-06-25T18:34:53.850Z,21.44
2018-06-25T18:37:23.280Z,21.40
2018-06-25T18:39:52.311Z,21.39
2018-06-25T18:42:21.671Z,21.34
2018-06-25T18:44:51.026Z,21.27
2018-06-25T18:47:20.435Z,21.25
2018-06-25T18:49:49.470Z,21.19
2018-06-25T18:52:18.787Z,21.20
2018-06-25T18:54:48.094Z,21.17
2018-06-25T18:57:17.481Z,21.16
2018-06-25T18:59:46.802Z,21.07
2018-06-25T19:02:16.126Z,21.08
2018-06-25T19:04:45.847Z,21.07
2018-06-25T19:07:15.265Z,20.98
2018-06-25T19:09:44.574Z,20.89
2018-06-25T19:12:13.867Z,20.82
2018-06-25T19:14:43.202Z,20.76
2018-06-25T19:17:12.519Z,20.77
2018-06-25T19:19:41.875Z,20.78
2018-06-25T19:22:11.198Z,20.62
2018-06-25T19:24:40.500Z,20.58
2018-06-25T19:27:09.878Z,20.57
2018-06-25T19:29:38.915Z,20.46
2018-06-25T19:32:09.225Z,20.39
2018-06-25T19:34:38.566Z,20.31
2018-06-25T19:37:07.861Z,20.30
2018-06-25T19:39:37.134Z,20.25
2018-06-25T19:42:09.665Z,20.21
2018-06-25T19:44:39.174Z,20.23
2018-06-25T19:47:08.518Z,20.09
2018-06-25T19:49:37.778Z,20.04
2018-06-25T19:52:07.164Z,19.95
2018-06-25T19:54:36.553Z,19.83
2018-06-25T19:57:06.010Z,19.75
2018-06-25T19:59:35.467Z,19.70
2018-06-25T20:02:04.888Z,19.64
2018-06-25T20:04:34.301Z,19.56
2018-06-25T20:07:04.912Z,19.49
2018-06-25T20:09:34.279Z,19.54
2018-06-25T20:12:03.577Z,19.43
2018-06-25T20:14:33.035Z,19.35
2018-06-25T20:17:02.275Z,19.27
2018-06-25T20:19:31.545Z,19.21
2018-06-25T20:22:00.876Z,19.17
2018-06-25T20:24:30.129Z,19.15
2018-06-25T20:26:59.474Z,19.14
2018-06-25T20:29:28.757Z,19.04
2018-06-25T20:31:58.118Z,18.97
2018-06-25T20:34:27.372Z,18.93
2018-06-25T20:36:56.665Z,18.94
2018-06-25T20:39:26.040Z,18.85
2018-06-25T20:41:55.340Z,18.86
2018-06-25T20:44:24.604Z,18.75
2018-06-25T20:46:53.981Z,18.73
2018-06-25T20:49:23.242Z,18.66
2018-06-25T20:51:52.547Z,18.62
2018-06-25T20:54:21.882Z,18.62
2018-06-25T20:56:51.299Z,18.66
2018-06-25T20:59:20.523Z,18.54
2018-06-25T21:01:49.914Z,18.45
2018-06-25T21:04:19.295Z,18.41
2018-06-25T21:06:48.739Z,18.34
2018-06-25T21:09:18.176Z,18.38
2018-06-25T21:11:47.586Z,18.43
2018-06-25T21:14:17.053Z,18.38
2018-06-25T21:16:46.485Z,18.34
2018-06-25T21:19:15.995Z,18.26
2018-06-25T21:21:45.420Z,18.22
2018-06-25T21:24:14.829Z,18.36
2018-06-25T21:26:44.556Z,18.23
2018-06-25T21:29:13.864Z,18.23
2018-06-25T21:31:43.136Z,18.18
2018-06-25T21:34:12.447Z,18.17
2018-06-25T21:36:41.717Z,18.16
2018-06-25T21:39:10.952Z,18.09
2018-06-25T21:41:40.343Z,18.11
2018-06-25T21:44:09.635Z,17.98
2018-06-25T21:46:38.960Z,17.89
2018-06-25T21:49:08.249Z,17.86
2018-06-25T21:51:37.566Z,17.89
2018-06-25T21:54:06.840Z,17.83
2018-06-25T21:56:36.225Z,17.73
2018-06-25T21:59:05.634Z,17.71
2018-06-25T22:01:35.088Z,17.61
2018-06-25T22:04:04.446Z,17.54
2018-06-25T22:06:33.759Z,17.45
2018-06-25T22:09:03.137Z,17.39
2018-06-25T22:11:32.464Z,17.41
2018-06-25T22:14:01.842Z,17.36
2018-06-25T22:16:31.164Z,17.33
2018-06-25T22:19:00.404Z,17.28
2018-06-25T22:21:30.833Z,17.23
2018-06-25T22:24:06.736Z,17.25
2018-06-25T22:26:36.114Z,17.26
2018-06-25T22:29:05.817Z,17.21
2018-06-25T22:31:35.207Z,17.18
2018-06-25T22:34:04.662Z,17.15
2018-06-25T22:36:34.039Z,17.07
2018-06-25T22:39:03.704Z,17.02
2018-06-25T22:41:33.101Z,16.96
2018-06-25T22:44:12.731Z,16.87
2018-06-25T22:46:43.124Z,16.79
2018-06-25T22:49:12.477Z,16.73
2018-06-25T22:51:41.728Z,16.66
2018-06-25T22:54:10.964Z,16.63
2018-06-25T22:56:40.254Z,16.58
2018-06-25T22:59:09.570Z,16.52
2018-06-25T23:01:38.815Z,16.47
2018-06-25T23:04:08.082Z,16.47
2018-06-25T23:06:37.411Z,16.42
2018-06-25T23:09:09.941Z,16.31
2018-06-25T23:11:39.198Z,16.29
2018-06-25T23:14:08.465Z,16.24
2018-06-25T23:16:37.814Z,16.21
2018-06-25T23:19:07.114Z,16.14
2018-06-25T23:21:36.450Z,16.12
2018-06-25T23:24:05.750Z,16.19
2018-06-25T23:26:35.111Z,16.13
2018-06-25T23:29:04.377Z,16.06
2018-06-25T23:31:33.724Z,16.00
2018-06-25T23:34:02.972Z,15.97
2018-06-25T23:36:32.431Z,15.91
2018-06-25T23:39:01.780Z,15.89
2018-06-25T23:41:31.033Z,15.85
2018-06-25T23:44:00.271Z,15.80
2018-06-25T23:46:29.727Z,15.79
2018-06-25T23:48:58.723Z,15.75
2018-06-25T23:51:28.022Z,15.76
2018-06-25T23:53:57.324Z,15.69
2018-06-25T23:56:26.642Z,15.65
2018-06-25T23:58:55.875Z,15.64
